createdAt,value
2022-08-17T00:00:43.173Z,100426.31
2022-08-17T00:03:23.265Z,100427.34
2022-08-17T00:06:01.348Z,100425.72
2022-08-17T00:08:34.127Z,100429.05
2022-08-17T00:11:05.919Z,100431.43
2022-08-17T00:13:38.540Z,100433.21
2022-08-17T00:16:11.713Z,100432.74
2022-08-17T00:19:06.139Z,100429.90
2022-08-17T00:22:29.866Z,100430.96
2022-08-17T00:24:18.368Z,100427.77
2022-08-17T00:26:46.762Z,100426.67
2022-08-17T00:29:19.717Z,100417.30
2022-08-17T00:31:49.385Z,100419.57
2022-08-17T00:34:17.604Z,100421.23
2022-08-17T00:36:45.881Z,100410.90
2022-08-17T00:39:14.054Z,100418.33
2022-08-17T00:41:42.350Z,100419.75
2022-08-17T00:44:11.809Z,100427.30
2022-08-17T00:46:42.432Z,100429.25
2022-08-17T00:49:11.966Z,100431.36
2022-08-17T00:52:14.918Z,100432.14
2022-08-17T00:54:47.621Z,100431.33
2022-08-17T00:57:17.996Z,100435.05
2022-08-17T01:00:03.015Z,100427.10
2022-08-17T01:02:42.680Z,100437.70
2022-08-17T01:05:25.679Z,100437.69
2022-08-17T01:07:53.759Z,100433.38
2022-08-17T01:10:58.797Z,100429.61
2022-08-17T01:13:28.615Z,100427.98
2022-08-17T01:16:18.613Z,100428.55
2022-08-17T01:18:50.255Z,100430.45
2022-08-17T01:21:32.782Z,100432.70
2022-08-17T01:24:02.610Z,100436.55
2022-08-17T01:26:32.622Z,100436.11
2022-08-17T01:29:02.292Z,100435.27
2022-08-17T01:31:35.886Z,100433.67
2022-08-17T01:34:11.367Z,100429.94
2022-08-17T01:36:43.807Z,100428.40
2022-08-17T01:39:49.667Z,100428.23
2022-08-17T01:42:47.223Z,100431.06
2022-08-17T01:45:23.682Z,100428.69
2022-08-17T01:47:55.334Z,100428.00
2022-08-17T01:50:27.639Z,100426.81
2022-08-17T01:53:32.200Z,100424.27
2022-08-17T01:56:09.589Z,100422.33
2022-08-17T01:58:39.285Z,100419.73
2022-08-17T02:01:08.564Z,100413.55
2022-08-17T02:03:38.071Z,100416.67
2022-08-17T02:06:06.511Z,100418.85
2022-08-17T02:09:01.577Z,100413.73
2022-08-17T02:11:37.276Z,100412.55
2022-08-17T02:14:10.307Z,100411.54
2022-08-17T02:16:41.920Z,100409.14
2022-08-17T02:19:15.294Z,100407.44
2022-08-17T02:21:47.369Z,100407.64
2022-08-17T02:24:58.655Z,100398.35
2022-08-17T02:27:14.503Z,100406.90
2022-08-17T02:29:42.277Z,100405.27
2022-08-17T02:32:28.356Z,100405.88
2022-08-17T02:34:57.908Z,100408.20
2022-08-17T02:37:27.426Z,100412.96
2022-08-17T02:39:59.105Z,100416.46
2022-08-17T02:42:39.297Z,100418.64
2022-08-17T02:45:12.608Z,100421.13
2022-08-17T02:47:41.078Z,100424.97
2022-08-17T02:50:12.346Z,100428.23
2022-08-17T02:52:44.170Z,100427.63
2022-08-17T02:55:20.472Z,100429.65
2022-08-17T02:57:49.181Z,100433.80
2022-08-17T03:00:33.553Z,100435.50
2022-08-17T03:03:09.350Z,100438.79
2022-08-17T03:05:42.322Z,100422.64
2022-08-17T03:08:18.029Z,100423.98
2022-08-17T03:11:19.203Z,100428.59
2022-08-17T03:13:59.905Z,100431.34
2022-08-17T03:16:34.306Z,100434.46
2022-08-17T03:19:06.108Z,100446.59
2022-08-17T03:21:34.733Z,100415.66
2022-08-17T03:24:08.821Z,100404.63
2022-08-17T03:26:37.359Z,100450.90
2022-08-17T03:29:05.722Z,100458.19
2022-08-17T03:31:34.413Z,100421.41
2022-08-17T03:34:39.137Z,100411.56
2022-08-17T03:37:09.739Z,100460.42
2022-08-17T03:40:59.504Z,100460.45
2022-08-17T03:43:32.839Z,100441.18
2022-08-17T03:46:28.248Z,100437.78
2022-08-17T03:49:24.958Z,100443.98
2022-08-17T03:52:14.116Z,100456.95
2022-08-17T03:55:02.600Z,100408.08
2022-08-17T03:57:33.086Z,100457.13
2022-08-17T04:05:10.809Z,100457.68
2022-08-17T04:07:58.392Z,100449.52
2022-08-17T04:10:33.279Z,100422.09
2022-08-17T04:29:24.802Z,100429.73
2022-08-17T04:31:54.463Z,100448.09
2022-08-17T04:34:33.559Z,100452.11
2022-08-17T04:37:07.114Z,100418.48
2022-08-17T04:44:37.125Z,100448.13
2022-08-17T04:51:51.036Z,100442.52
2022-08-17T04:54:38.182Z,100452.79
2022-08-17T04:57:06.699Z,100445.92
2022-08-17T04:59:35.389Z,100446.89
2022-08-17T05:02:04.415Z,100469.20
2022-08-17T05:04:40.659Z,100469.88
2022-08-17T05:07:10.276Z,100472.20
2022-08-17T05:09:38.511Z,100474.34
2022-08-17T05:12:11.275Z,100478.05
2022-08-17T05:14:39.423Z,100479.90
2022-08-17T05:17:11.002Z,100481.00
2022-08-17T05:19:39.320Z,100485.05
2022-08-17T05:22:07.000Z,100486.97
2022-08-17T05:24:42.756Z,100485.34
2022-08-17T05:27:14.352Z,100488.59
2022-08-17T05:29:46.941Z,100486.85
2022-08-17T05:32:39.055Z,100491.02
2022-08-17T05:35:07.151Z,100490.73
2022-08-17T05:37:35.007Z,100490.52
2022-08-17T05:40:02.757Z,100491.70
2022-08-17T05:42:30.713Z,100491.81
2022-08-17T05:45:05.907Z,100487.30
2022-08-17T05:47:37.745Z,100487.88
2022-08-17T05:50:10.044Z,100488.87
2022-08-17T05:53:10.362Z,100490.77
2022-08-17T05:56:30.221Z,100496.46
2022-08-17T05:59:04.840Z,100495.77
2022-08-17T06:01:49.979Z,100495.64
2022-08-17T06:04:32.329Z,100494.83
2022-08-17T06:07:39.163Z,100494.10
2022-08-17T06:10:18.045Z,100492.21
2022-08-17T06:13:36.766Z,100488.13
2022-08-17T06:16:33.050Z,100487.20
2022-08-17T06:19:38.753Z,100480.91
2022-08-17T06:22:08.551Z,100481.87
2022-08-17T06:24:56.487Z,100482.95
2022-08-17T06:27:40.618Z,100481.21
2022-08-17T06:30:14.418Z,100484.66
2022-08-17T06:32:45.130Z,100480.48
2022-08-17T06:35:28.914Z,100482.61
2022-08-17T06:38:37.144Z,100483.52
2022-08-17T06:41:23.786Z,100486.82
2022-08-17T06:44:42.207Z,100481.41
2022-08-17T06:47:29.277Z,100479.39
2022-08-17T06:50:36.616Z,100471.84
2022-08-17T06:53:37.868Z,100476.34
2022-08-17T06:56:11.284Z,100477.24
2022-08-17T06:58:42.941Z,100476.31
2022-08-17T07:01:30.743Z,100479.12
2022-08-17T07:04:13.185Z,100479.52
2022-08-17T07:07:27.500Z,100480.33
2022-08-17T07:09:58.513Z,100479.35
2022-08-17T07:12:37.067Z,100475.85
2022-08-17T07:15:13.442Z,100478.83
2022-08-17T07:17:47.845Z,100478.00
2022-08-17T07:20:25.206Z,100481.55
2022-08-17T07:23:04.210Z,100486.94
2022-08-17T07:25:31.809Z,100489.84
2022-08-17T07:28:06.861Z,100487.08
2022-08-17T07:30:52.708Z,100486.30
2022-08-17T07:33:29.279Z,100484.89
2022-08-17T07:35:57.843Z,100490.92
2022-08-17T07:38:34.971Z,100496.52
2022-08-17T07:41:07.981Z,100502.09
2022-08-17T07:43:42.113Z,100504.11
2022-08-17T07:46:54.848Z,100503.05
2022-08-17T07:49:31.698Z,100503.71
2022-08-17T07:52:47.456Z,100508.64
2022-08-17T07:54:59.430Z,100507.86
2022-08-17T07:57:35.739Z,100511.29
2022-08-17T08:00:31.832Z,100511.39
2022-08-17T08:03:22.662Z,100509.65
2022-08-17T08:06:01.484Z,100511.06
2022-08-17T08:08:41.800Z,100515.98
2022-08-17T08:11:14.973Z,100515.70
2022-08-17T08:13:45.067Z,100511.42
2022-08-17T08:16:23.804Z,100503.14
2022-08-17T08:18:59.077Z,100510.34
2022-08-17T08:21:51.724Z,100505.98
2022-08-17T08:24:59.844Z,100502.60
2022-08-17T08:27:43.483Z,100497.21
2022-08-17T08:30:21.698Z,100498.83
2022-08-17T08:33:09.786Z,100493.86
2022-08-17T08:35:53.245Z,100498.47
2022-08-17T08:38:34.295Z,100498.08
2022-08-17T08:41:33.267Z,100496.82
2022-08-17T08:44:03.986Z,100494.02
2022-08-17T08:46:51.053Z,100495.08
2022-08-17T08:50:05.730Z,100487.90
2022-08-17T08:52:49.539Z,100493.77
2022-08-17T08:55:59.873Z,100499.10
2022-08-17T08:58:50.018Z,100503.09
2022-08-17T09:01:57.072Z,100503.16
2022-08-17T09:05:12.775Z,100501.80
2022-08-17T09:08:03.584Z,100503.04
2022-08-17T09:10:51.951Z,100504.71
2022-08-17T09:13:33.010Z,100504.70
2022-08-17T09:16:14.906Z,100507.66
2022-08-17T09:19:02.178Z,100506.62
2022-08-17T09:21:55.046Z,100512.09
2022-08-17T09:24:39.717Z,100518.64
2022-08-17T09:27:28.286Z,100517.89
2022-08-17T09:30:08.532Z,100519.66
2022-08-17T09:32:51.622Z,100519.27
2022-08-17T09:35:41.103Z,100520.55
2022-08-17T09:38:19.318Z,100521.46
2022-08-17T09:41:20.420Z,100524.83
2022-08-17T09:43:58.742Z,100523.85
2022-08-17T09:47:15.730Z,100525.28
2022-08-17T09:50:09.147Z,100524.52
2022-08-17T09:52:37.046Z,100526.75
2022-08-17T09:55:09.735Z,100527.40
2022-08-17T09:57:57.318Z,100532.46
2022-08-17T10:00:34.858Z,100534.45
2022-08-17T10:03:16.094Z,100530.52
2022-08-17T10:06:14.307Z,100517.66
2022-08-17T10:09:07.707Z,100524.52
2022-08-17T10:12:36.643Z,100521.95
2022-08-17T10:15:36.198Z,100519.84
2022-08-17T10:18:33.095Z,100519.25
2022-08-17T10:21:31.968Z,100511.95
2022-08-17T10:24:20.937Z,100515.33
2022-08-17T10:26:56.391Z,100512.08
2022-08-17T10:29:47.269Z,100500.32
2022-08-17T10:33:07.118Z,100497.94
2022-08-17T10:35:53.013Z,100496.75
2022-08-17T10:38:46.140Z,100493.95
2022-08-17T10:41:43.022Z,100494.40
2022-08-17T10:44:45.356Z,100496.59
2022-08-17T10:47:16.886Z,100493.65
2022-08-17T10:49:53.229Z,100492.63
2022-08-17T10:52:21.632Z,100489.83
2022-08-17T10:54:58.336Z,100486.10
2022-08-17T10:57:29.541Z,100479.62
2022-08-17T11:00:28.051Z,100475.29
2022-08-17T11:02:57.564Z,100478.89
2022-08-17T11:05:49.848Z,100476.64
2022-08-17T11:08:46.129Z,100476.81
2022-08-17T11:11:39.192Z,100473.51
2022-08-17T11:14:16.669Z,100472.67
2022-08-17T11:17:26.321Z,100477.27
2022-08-17T11:20:49.077Z,100468.42
2022-08-17T11:23:37.599Z,100467.34
2022-08-17T11:26:21.890Z,100472.30
2022-08-17T11:28:55.764Z,100469.25
2022-08-17T11:31:47.509Z,100470.71
2022-08-17T11:34:26.599Z,100475.95
2022-08-17T11:37:18.750Z,100474.70
2022-08-17T11:40:38.603Z,100478.54
2022-08-17T11:44:03.518Z,100477.91
2022-08-17T11:47:09.117Z,100487.38
2022-08-17T11:50:28.705Z,100488.70
2022-08-17T11:52:56.520Z,100480.77
2022-08-17T11:55:38.198Z,100476.08
2022-08-17T11:58:29.562Z,100474.97
2022-08-17T12:01:06.933Z,100474.73
2022-08-17T12:03:34.542Z,100474.04
2022-08-17T12:06:30.338Z,100472.01
2022-08-17T12:09:20.996Z,100472.59
2022-08-17T12:12:11.927Z,100468.09
2022-08-17T12:17:40.555Z,100465.45
2022-08-17T12:20:23.722Z,100460.18
2022-08-17T12:23:17.006Z,100458.05
2022-08-17T12:26:20.078Z,100460.60
2022-08-17T12:28:51.098Z,100457.75
2022-08-17T12:31:35.468Z,100460.80
2022-08-17T12:34:05.195Z,100453.35
2022-08-17T12:36:34.474Z,100462.12
2022-08-17T12:39:14.155Z,100464.38
2022-08-17T12:41:46.540Z,100465.20
2022-08-17T12:44:20.743Z,100460.02
2022-08-17T12:47:02.891Z,100461.42
2022-08-17T12:49:39.115Z,100461.58
2022-08-17T12:52:28.958Z,100461.63
2022-08-17T12:55:02.767Z,100463.94
2022-08-17T12:57:40.260Z,100462.08
2022-08-17T13:00:10.415Z,100471.42
2022-08-17T13:02:42.063Z,100472.79
2022-08-17T13:05:35.595Z,100468.83
2022-08-17T13:08:30.565Z,100464.61
2022-08-17T13:11:09.886Z,100467.81
2022-08-17T13:13:44.459Z,100466.38
2022-08-17T13:16:11.999Z,100468.55
2022-08-17T13:18:50.196Z,100463.28
2022-08-17T13:21:23.195Z,100460.20
2022-08-17T13:24:11.724Z,100457.98
2022-08-17T13:26:47.536Z,100459.03
2022-08-17T13:29:32.961Z,100456.33
2022-08-17T13:32:12.950Z,100460.83
2022-08-17T13:35:12.362Z,100458.77
2022-08-17T13:37:36.991Z,100458.46
2022-08-17T13:40:10.502Z,100451.56
2022-08-17T13:42:50.332Z,100449.52
2022-08-17T13:45:39.201Z,100440.48
2022-08-17T13:48:15.949Z,100438.92
2022-08-17T13:50:55.624Z,100435.30
2022-08-17T13:53:36.086Z,100431.45
2022-08-17T13:56:37.370Z,100436.21
2022-08-17T13:59:14.010Z,100434.55
2022-08-17T14:01:52.571Z,100428.70
2022-08-17T14:05:13.232Z,100432.13
2022-08-17T14:07:41.735Z,100426.98
2022-08-17T14:10:16.907Z,100427.40
2022-08-17T14:12:52.068Z,100420.95
2022-08-17T14:15:24.409Z,100424.80
2022-08-17T14:18:12.395Z,100421.93
2022-08-17T14:20:44.291Z,100426.85
2022-08-17T14:23:12.985Z,100428.92
2022-08-17T14:25:40.842Z,100432.34
2022-08-17T14:28:08.556Z,100431.77
2022-08-17T14:30:37.289Z,100438.38
2022-08-17T14:33:05.598Z,100437.48
2022-08-17T14:35:36.144Z,100439.71
2022-08-17T14:38:03.579Z,100438.27
2022-08-17T14:40:34.797Z,100436.21
2022-08-17T14:43:12.342Z,100437.77
2022-08-17T14:45:41.102Z,100442.23
2022-08-17T14:48:08.954Z,100444.13
2022-08-17T14:50:43.906Z,100451.84
2022-08-17T14:53:15.648Z,100454.67
2022-08-17T14:55:45.359Z,100452.84
2022-08-17T14:58:14.643Z,100456.04
2022-08-17T15:00:43.170Z,100456.83
2022-08-17T15:03:11.337Z,100457.81
2022-08-17T15:05:39.602Z,100464.41
2022-08-17T15:08:07.385Z,100466.45
2022-08-17T15:10:35.572Z,100474.84
2022-08-17T15:13:03.511Z,100478.10
2022-08-17T15:15:31.309Z,100480.91
2022-08-17T15:17:59.347Z,100478.45
2022-08-17T15:20:29.590Z,100483.23
2022-08-17T15:22:58.487Z,100482.84
2022-08-17T15:25:28.558Z,100479.23
2022-08-17T15:27:56.335Z,100479.98
2022-08-17T15:30:26.032Z,100476.05
2022-08-17T15:32:55.198Z,100470.78
2022-08-17T15:35:29.872Z,100466.23
2022-08-17T15:38:10.770Z,100469.41
2022-08-17T15:40:44.207Z,100467.62
2022-08-17T15:43:17.354Z,100474.41
2022-08-17T15:45:54.855Z,100481.41
2022-08-17T15:48:41.263Z,100479.85
2022-08-17T15:51:15.822Z,100479.23
2022-08-17T15:54:18.788Z,100482.86
2022-08-17T15:56:50.650Z,100505.53
2022-08-17T15:59:18.953Z,100522.41
2022-08-17T16:03:13.091Z,100522.97
2022-08-17T16:04:34.600Z,100527.25
2022-08-17T16:07:02.811Z,100532.66
2022-08-17T16:09:30.552Z,100540.33
2022-08-17T16:11:58.919Z,100557.78
2022-08-17T16:14:33.530Z,100560.27
2022-08-17T16:17:04.709Z,100558.57
2022-08-17T16:19:34.060Z,100557.92
2022-08-17T16:22:02.969Z,100553.51
2022-08-17T16:24:31.372Z,100556.44
2022-08-17T16:26:59.960Z,100563.98
2022-08-17T16:29:28.338Z,100559.33
2022-08-17T16:31:57.440Z,100564.04
2022-08-17T16:34:25.227Z,100563.69
2022-08-17T16:36:56.516Z,100566.33
2022-08-17T16:39:28.471Z,100563.21
2022-08-17T16:41:59.854Z,100559.05
2022-08-17T16:44:30.201Z,100566.09
2022-08-17T16:47:01.117Z,100565.90
2022-08-17T16:49:35.796Z,100570.86
2022-08-17T16:52:09.301Z,100565.77
2022-08-17T16:54:43.242Z,100577.04
2022-08-17T16:57:12.938Z,100578.70
2022-08-17T16:59:44.954Z,100579.01
2022-08-17T17:02:27.664Z,100581.89
2022-08-17T17:05:44.849Z,100587.06
2022-08-17T17:08:28.078Z,100582.84
2022-08-17T17:10:58.875Z,100582.98
2022-08-17T17:14:01.847Z,100582.36
2022-08-17T17:16:46.078Z,100579.20
2022-08-17T17:19:19.676Z,100580.42
2022-08-17T17:22:15.843Z,100578.77
2022-08-17T17:25:04.737Z,100577.33
2022-08-17T17:28:01.979Z,100579.70
2022-08-17T17:30:47.460Z,100582.46
2022-08-17T17:33:23.019Z,100584.83
2022-08-17T17:35:59.456Z,100582.73
2022-08-17T17:38:34.579Z,100580.67
2022-08-17T17:41:09.022Z,100579.05
2022-08-17T17:43:39.777Z,100581.13
2022-08-17T17:46:27.104Z,100579.48
2022-08-17T17:48:59.901Z,100581.70
2022-08-17T17:52:07.980Z,100587.49
2022-08-17T17:55:25.344Z,100595.06
2022-08-17T17:58:29.990Z,100597.50
2022-08-17T18:01:28.739Z,100599.00
2022-08-17T18:04:29.833Z,100605.34
2022-08-17T18:07:41.177Z,100611.04
2022-08-17T18:10:31.779Z,100614.09
2022-08-17T18:13:27.774Z,100609.16
2022-08-17T18:15:56.012Z,100604.27
2022-08-17T18:18:37.696Z,100607.83
2022-08-17T18:21:16.173Z,100606.77
2022-08-17T18:24:00.715Z,100602.43
2022-08-17T18:26:55.411Z,100600.90
2022-08-17T18:29:35.768Z,100605.08
2022-08-17T18:32:28.174Z,100608.89
2022-08-17T18:35:01.088Z,100614.83
2022-08-17T18:37:48.596Z,100615.28
2022-08-17T18:40:16.224Z,100610.37
2022-08-17T18:43:06.355Z,100610.77
2022-08-17T18:45:45.591Z,100609.60
2022-08-17T18:48:37.713Z,100607.11
2022-08-17T18:51:43.186Z,100605.40
2022-08-17T18:54:23.461Z,100604.16
2022-08-17T18:56:57.361Z,100600.29
2022-08-17T18:59:31.365Z,100598.86
2022-08-17T19:02:20.594Z,100595.11
2022-08-17T19:05:12.934Z,100595.75
2022-08-17T19:07:45.419Z,100594.94
2022-08-17T19:10:25.047Z,100589.24
2022-08-17T19:13:12.690Z,100588.96
2022-08-17T19:16:12.119Z,100593.69
2022-08-17T19:18:41.144Z,100600.20
2022-08-17T19:21:23.117Z,100603.39
2022-08-17T19:24:09.350Z,100596.71
2022-08-17T19:26:54.198Z,100598.59
2022-08-17T19:29:51.545Z,100599.40
2022-08-17T19:32:26.765Z,100601.01
2022-08-17T19:34:55.616Z,100602.14
2022-08-17T19:37:56.142Z,100606.51
2022-08-17T19:40:51.691Z,100608.20
2022-08-17T19:43:35.887Z,100606.08
2022-08-17T19:46:50.066Z,100602.94
2022-08-17T19:49:54.588Z,100605.47
2022-08-17T19:52:29.592Z,100601.23
2022-08-17T19:55:21.614Z,100601.39
2022-08-17T19:57:58.688Z,100602.12
2022-08-17T20:00:26.929Z,100607.16
2022-08-17T20:03:06.144Z,100611.64
2022-08-17T20:06:10.856Z,100611.54
2022-08-17T20:08:41.449Z,100615.23
2022-08-17T20:11:21.133Z,100612.66
2022-08-17T20:14:21.827Z,100613.00
2022-08-17T20:17:06.202Z,100611.88
2022-08-17T20:19:57.949Z,100617.08
2022-08-17T20:22:51.758Z,100617.14
2022-08-17T20:25:31.646Z,100616.62
2022-08-17T20:28:34.821Z,100616.57
2022-08-17T20:31:39.664Z,100622.86
2022-08-17T20:34:30.870Z,100625.18
2022-08-17T20:37:15.302Z,100621.67
2022-08-17T20:39:46.701Z,100617.42
2022-08-17T20:42:20.483Z,100620.42
2022-08-17T20:44:59.150Z,100621.34
2022-08-17T20:47:36.652Z,100620.73
2022-08-17T20:50:22.769Z,100626.64
2022-08-17T20:52:57.617Z,100625.34
2022-08-17T20:55:51.398Z,100627.11
2022-08-17T20:58:30.620Z,100625.89
2022-08-17T21:01:00.938Z,100627.25
2022-08-17T21:03:50.444Z,100629.80
2022-08-17T21:06:19.797Z,100634.25
2022-08-17T21:09:12.338Z,100634.39
2022-08-17T21:12:03.910Z,100635.51
2022-08-17T21:14:57.077Z,100633.56
2022-08-17T21:18:08.013Z,100632.85
2022-08-17T21:21:23.723Z,100629.70
2022-08-17T21:24:32.649Z,100632.98
2022-08-17T21:27:34.626Z,100636.13
2022-08-17T21:30:02.045Z,100632.39
2022-08-17T21:32:37.145Z,100630.58
2022-08-17T21:35:07.059Z,100629.41
2022-08-17T21:37:46.293Z,100630.27
2022-08-17T21:40:17.773Z,100628.68
2022-08-17T21:43:00.482Z,100629.73
2022-08-17T21:45:35.142Z,100631.48
2022-08-17T21:48:19.243Z,100627.83
2022-08-17T21:51:28.516Z,100629.95
2022-08-17T21:54:01.765Z,100631.47
2022-08-17T21:56:38.800Z,100631.95
2022-08-17T21:59:15.997Z,100631.98
2022-08-17T22:01:51.171Z,100638.49
2022-08-17T22:04:34.218Z,100642.80
2022-08-17T22:07:10.697Z,100645.86
2022-08-17T22:09:49.630Z,100641.43
2022-08-17T22:12:20.825Z,100638.77
2022-08-17T22:15:01.229Z,100642.61
2022-08-17T22:17:35.001Z,100641.60
2022-08-17T22:20:08.920Z,100642.02
2022-08-17T22:23:24.805Z,100642.52
2022-08-17T22:25:59.679Z,100640.68
2022-08-17T22:28:39.125Z,100638.98
2022-08-17T22:31:10.076Z,100638.85
2022-08-17T22:33:50.150Z,100634.35
2022-08-17T22:36:29.684Z,100632.95
2022-08-17T22:39:04.002Z,100629.45
2022-08-17T22:41:54.026Z,100627.26
2022-08-17T22:44:31.960Z,100627.55
2022-08-17T22:47:14.516Z,100630.50
2022-08-17T22:49:58.900Z,100624.53
2022-08-17T22:52:34.168Z,100624.39
2022-08-17T22:55:36.085Z,100625.72
2022-08-17T22:58:30.460Z,100629.19
2022-08-17T23:01:25.409Z,100627.81
2022-08-17T23:04:04.178Z,100626.38
2022-08-17T23:06:36.652Z,100627.70
2022-08-17T23:09:06.524Z,100625.98
2022-08-17T23:11:50.331Z,100627.54
2022-08-17T23:14:22.042Z,100621.77
2022-08-17T23:16:50.871Z,100625.55
2022-08-17T23:19:20.681Z,100627.20
2022-08-17T23:21:50.011Z,100626.74
2022-08-17T23:24:23.275Z,100625.67
2022-08-17T23:26:51.081Z,100623.31
2022-08-17T23:29:21.211Z,100622.50
2022-08-17T23:31:50.598Z,100624.54
2022-08-17T23:34:18.615Z,100629.17
2022-08-17T23:36:50.261Z,100621.73
2022-08-17T23:39:27.695Z,100624.89
2022-08-17T23:41:58.457Z,100632.10
2022-08-17T23:44:28.381Z,100627.38
2022-08-17T23:46:57.027Z,100628.05
2022-08-17T23:49:24.770Z,100627.66
2022-08-17T23:51:54.297Z,100630.75
2022-08-17T23:54:34.209Z,100632.21
2022-08-17T23:57:04.281Z,100636.00
2022-08-17T23:59:33.454Z,100638.20
